sensor_id;sensor_type;location;lat;lon;timestamp;P1;durP1;ratioP1;P2;durP2;ratioP2
71496;SDS011;59317;53.218;5.730;2022-10-16T00:01:53;8.80;;;1.45;;
71496;SDS011;59317;53.218;5.730;2022-10-16T00:04:19;7.68;;;1.15;;
71496;SDS011;59317;53.218;5.730;2022-10-16T00:06:45;7.68;;;1.25;;
71496;SDS011;59317;53.218;5.730;2022-10-16T00:09:11;10.23;;;1.38;;
71496;SDS011;59317;53.218;5.730;2022-10-16T00:11:38;7.45;;;1.17;;
71496;SDS011;59317;53.218;5.730;2022-10-16T00:14:05;9.65;;;1.40;;
71496;SDS011;59317;53.218;5.730;2022-10-16T00:16:32;6.75;;;1.00;;
71496;SDS011;59317;53.218;5.730;2022-10-16T00:18:58;9.00;;;1.40;;
71496;SDS011;59317;53.218;5.730;2022-10-16T00:21:25;7.90;;;1.17;;
71496;SDS011;59317;53.218;5.730;2022-10-16T00:23:52;7.67;;;1.30;;
71496;SDS011;59317;53.218;5.730;2022-10-16T00:26:18;7.25;;;1.10;;
71496;SDS011;59317;53.218;5.730;2022-10-16T00:28:47;6.53;;;1.30;;
71496;SDS011;59317;53.218;5.730;2022-10-16T00:31:14;8.65;;;1.08;;
71496;SDS011;59317;53.218;5.730;2022-10-16T00:33:40;7.63;;;0.90;;
71496;SDS011;59317;53.218;5.730;2022-10-16T00:36:07;8.98;;;1.00;;
71496;SDS011;59317;53.218;5.730;2022-10-16T00:38:33;9.03;;;1.40;;
71496;SDS011;59317;53.218;5.730;2022-10-16T00:41:00;6.25;;;1.08;;
71496;SDS011;59317;53.218;5.730;2022-10-16T00:46:01;5.75;;;1.10;;
71496;SDS011;59317;53.218;5.730;2022-10-16T00:48:28;6.78;;;1.17;;
71496;SDS011;59317;53.218;5.730;2022-10-16T00:50:54;8.03;;;1.10;;
71496;SDS011;59317;53.218;5.730;2022-10-16T00:53:21;7.50;;;1.00;;
71496;SDS011;59317;53.218;5.730;2022-10-16T00:55:48;5.38;;;1.10;;
71496;SDS011;59317;53.218;5.730;2022-10-16T00:58:14;7.22;;;1.10;;
71496;SDS011;59317;53.218;5.730;2022-10-16T01:00:40;8.00;;;1.00;;
71496;SDS011;59317;53.218;5.730;2022-10-16T01:03:22;6.72;;;0.90;;
71496;SDS011;59317;53.218;5.730;2022-10-16T01:05:49;5.25;;;1.00;;
71496;SDS011;59317;53.218;5.730;2022-10-16T01:08:19;8.25;;;0.90;;
71496;SDS011;59317;53.218;5.730;2022-10-16T01:10:50;7.28;;;1.20;;
71496;SDS011;59317;53.218;5.730;2022-10-16T01:13:21;5.65;;;1.00;;
71496;SDS011;59317;53.218;5.730;2022-10-16T01:15:52;5.85;;;1.10;;
71496;SDS011;59317;53.218;5.730;2022-10-16T01:20:58;9.27;;;1.10;;
71496;SDS011;59317;53.218;5.730;2022-10-16T01:28:34;7.07;;;0.82;;
71496;SDS011;59317;53.218;5.730;2022-10-16T01:31:03;7.13;;;0.90;;
71496;SDS011;59317;53.218;5.730;2022-10-16T01:33:37;5.30;;;0.70;;
71496;SDS011;59317;53.218;5.730;2022-10-16T01:36:15;6.57;;;0.97;;
71496;SDS011;59317;53.218;5.730;2022-10-16T01:38:42;6.95;;;1.10;;
71496;SDS011;59317;53.218;5.730;2022-10-16T01:44:09;6.18;;;0.90;;
71496;SDS011;59317;53.218;5.730;2022-10-16T01:46:37;6.05;;;1.20;;
71496;SDS011;59317;53.218;5.730;2022-10-16T01:49:03;4.28;;;0.80;;
71496;SDS011;59317;53.218;5.730;2022-10-16T01:51:30;6.30;;;1.00;;
71496;SDS011;59317;53.218;5.730;2022-10-16T01:53:57;6.70;;;0.90;;
71496;SDS011;59317;53.218;5.730;2022-10-16T01:56:24;5.33;;;1.07;;
71496;SDS011;59317;53.218;5.730;2022-10-16T01:58:52;6.55;;;0.80;;
71496;SDS011;59317;53.218;5.730;2022-10-16T02:01:20;7.75;;;1.05;;
71496;SDS011;59317;53.218;5.730;2022-10-16T02:03:48;5.55;;;1.00;;
71496;SDS011;59317;53.218;5.730;2022-10-16T02:06:16;5.38;;;1.02;;
71496;SDS011;59317;53.218;5.730;2022-10-16T02:08:42;7.40;;;1.30;;
71496;SDS011;59317;53.218;5.730;2022-10-16T02:11:09;6.35;;;1.30;;
71496;SDS011;59317;53.218;5.730;2022-10-16T02:13:42;8.65;;;1.30;;
71496;SDS011;59317;53.218;5.730;2022-10-16T02:16:10;7.32;;;1.55;;
71496;SDS011;59317;53.218;5.730;2022-10-16T02:18:37;9.55;;;1.17;;
71496;SDS011;59317;53.218;5.730;2022-10-16T02:23:51;6.73;;;0.90;;
71496;SDS011;59317;53.218;5.730;2022-10-16T02:26:23;6.35;;;1.10;;
71496;SDS011;59317;53.218;5.730;2022-10-16T02:28:53;7.68;;;1.10;;
71496;SDS011;59317;53.218;5.730;2022-10-16T02:31:22;6.25;;;1.23;;
71496;SDS011;59317;53.218;5.730;2022-10-16T02:33:51;4.22;;;1.10;;
71496;SDS011;59317;53.218;5.730;2022-10-16T02:36:18;6.97;;;1.30;;
71496;SDS011;59317;53.218;5.730;2022-10-16T02:38:44;7.22;;;1.52;;
71496;SDS011;59317;53.218;5.730;2022-10-16T02:41:11;6.65;;;2.08;;
71496;SDS011;59317;53.218;5.730;2022-10-16T02:43:38;7.47;;;2.00;;
71496;SDS011;59317;53.218;5.730;2022-10-16T02:46:04;8.57;;;2.30;;
71496;SDS011;59317;53.218;5.730;2022-10-16T02:48:30;7.28;;;2.00;;
71496;SDS011;59317;53.218;5.730;2022-10-16T02:50:56;7.07;;;1.83;;
71496;SDS011;59317;53.218;5.730;2022-10-16T02:53:22;6.40;;;2.00;;
71496;SDS011;59317;53.218;5.730;2022-10-16T02:55:48;6.37;;;1.80;;
71496;SDS011;59317;53.218;5.730;2022-10-16T02:58:14;6.13;;;2.07;;
71496;SDS011;59317;53.218;5.730;2022-10-16T03:00:40;7.97;;;2.00;;
71496;SDS011;59317;53.218;5.730;2022-10-16T03:03:07;6.60;;;2.10;;
71496;SDS011;59317;53.218;5.730;2022-10-16T03:05:33;15.95;;;2.20;;
71496;SDS011;59317;53.218;5.730;2022-10-16T03:07:59;6.88;;;2.30;;
71496;SDS011;59317;53.218;5.730;2022-10-16T03:10:25;6.78;;;1.90;;
71496;SDS011;59317;53.218;5.730;2022-10-16T03:12:51;6.28;;;1.98;;
71496;SDS011;59317;53.218;5.730;2022-10-16T03:15:17;6.68;;;1.90;;
71496;SDS011;59317;53.218;5.730;2022-10-16T03:17:43;7.05;;;2.33;;
71496;SDS011;59317;53.218;5.730;2022-10-16T03:20:09;7.07;;;2.20;;
71496;SDS011;59317;53.218;5.730;2022-10-16T03:22:35;6.38;;;1.90;;
71496;SDS011;59317;53.218;5.730;2022-10-16T03:25:01;5.67;;;1.90;;
71496;SDS011;59317;53.218;5.730;2022-10-16T03:27:28;6.43;;;2.30;;
71496;SDS011;59317;53.218;5.730;2022-10-16T03:29:53;8.30;;;2.33;;
71496;SDS011;59317;53.218;5.730;2022-10-16T03:32:19;6.53;;;1.90;;
71496;SDS011;59317;53.218;5.730;2022-10-16T03:34:46;8.23;;;2.00;;
71496;SDS011;59317;53.218;5.730;2022-10-16T03:37:12;6.70;;;2.15;;
71496;SDS011;59317;53.218;5.730;2022-10-16T03:39:38;7.10;;;2.05;;
71496;SDS011;59317;53.218;5.730;2022-10-16T03:42:04;5.55;;;1.98;;
71496;SDS011;59317;53.218;5.730;2022-10-16T03:44:30;7.05;;;2.08;;
71496;SDS011;59317;53.218;5.730;2022-10-16T03:46:56;8.32;;;2.00;;
71496;SDS011;59317;53.218;5.730;2022-10-16T03:49:22;5.97;;;1.88;;
71496;SDS011;59317;53.218;5.730;2022-10-16T03:51:48;6.47;;;2.00;;
71496;SDS011;59317;53.218;5.730;2022-10-16T03:54:14;7.97;;;1.83;;
71496;SDS011;59317;53.218;5.730;2022-10-16T03:56:40;8.07;;;1.90;;
71496;SDS011;59317;53.218;5.730;2022-10-16T03:59:06;6.47;;;1.67;;
71496;SDS011;59317;53.218;5.730;2022-10-16T04:01:32;5.73;;;1.57;;
71496;SDS011;59317;53.218;5.730;2022-10-16T04:03:58;6.97;;;1.60;;
71496;SDS011;59317;53.218;5.730;2022-10-16T04:06:24;6.95;;;1.40;;
71496;SDS011;59317;53.218;5.730;2022-10-16T04:08:50;7.68;;;1.48;;
71496;SDS011;59317;53.218;5.730;2022-10-16T04:11:16;8.65;;;1.40;;
71496;SDS011;59317;53.218;5.730;2022-10-16T04:13:41;7.13;;;1.25;;
71496;SDS011;59317;53.218;5.730;2022-10-16T04:16:08;6.28;;;1.30;;
71496;SDS011;59317;53.218;5.730;2022-10-16T04:18:34;5.90;;;1.40;;
71496;SDS011;59317;53.218;5.730;2022-10-16T04:21:03;4.70;;;1.40;;
71496;SDS011;59317;53.218;5.730;2022-10-16T04:23:30;9.02;;;1.60;;
71496;SDS011;59317;53.218;5.730;2022-10-16T04:25:56;8.20;;;1.70;;
71496;SDS011;59317;53.218;5.730;2022-10-16T04:28:22;6.55;;;1.70;;
71496;SDS011;59317;53.218;5.730;2022-10-16T04:30:48;6.38;;;1.60;;
71496;SDS011;59317;53.218;5.730;2022-10-16T04:33:13;6.50;;;1.60;;
71496;SDS011;59317;53.218;5.730;2022-10-16T04:35:39;6.95;;;1.60;;
71496;SDS011;59317;53.218;5.730;2022-10-16T04:38:05;5.33;;;1.37;;
71496;SDS011;59317;53.218;5.730;2022-10-16T04:40:31;5.97;;;1.30;;
71496;SDS011;59317;53.218;5.730;2022-10-16T04:42:58;6.30;;;1.10;;
71496;SDS011;59317;53.218;5.730;2022-10-16T04:45:24;6.90;;;1.30;;
71496;SDS011;59317;53.218;5.730;2022-10-16T04:47:50;6.47;;;1.50;;
71496;SDS011;59317;53.218;5.730;2022-10-16T04:50:16;7.38;;;1.40;;
71496;SDS011;59317;53.218;5.730;2022-10-16T04:52:42;5.15;;;1.30;;
71496;SDS011;59317;53.218;5.730;2022-10-16T04:55:08;5.38;;;1.30;;
71496;SDS011;59317;53.218;5.730;2022-10-16T04:57:34;6.25;;;1.30;;
71496;SDS011;59317;53.218;5.730;2022-10-16T05:00:00;6.20;;;1.20;;
71496;SDS011;59317;53.218;5.730;2022-10-16T05:02:27;6.75;;;1.00;;
71496;SDS011;59317;53.218;5.730;2022-10-16T05:04:53;5.90;;;0.95;;
71496;SDS011;59317;53.218;5.730;2022-10-16T05:07:19;6.00;;;0.95;;
71496;SDS011;59317;53.218;5.730;2022-10-16T05:09:45;6.15;;;0.90;;
71496;SDS011;59317;53.218;5.730;2022-10-16T05:12:11;5.28;;;0.90;;
71496;SDS011;59317;53.218;5.730;2022-10-16T05:14:37;6.07;;;1.10;;
71496;SDS011;59317;53.218;5.730;2022-10-16T05:17:03;5.07;;;1.02;;
71496;SDS011;59317;53.218;5.730;2022-10-16T05:19:29;7.18;;;1.00;;
71496;SDS011;59317;53.218;5.730;2022-10-16T05:21:55;4.60;;;1.08;;
71496;SDS011;59317;53.218;5.730;2022-10-16T05:24:21;6.68;;;1.02;;
71496;SDS011;59317;53.218;5.730;2022-10-16T05:26:47;6.07;;;1.30;;
71496;SDS011;59317;53.218;5.730;2022-10-16T05:29:13;6.93;;;1.60;;
71496;SDS011;59317;53.218;5.730;2022-10-16T05:31:39;6.47;;;1.65;;
71496;SDS011;59317;53.218;5.730;2022-10-16T05:34:05;6.93;;;1.52;;
71496;SDS011;59317;53.218;5.730;2022-10-16T05:36:31;6.93;;;1.50;;
71496;SDS011;59317;53.218;5.730;2022-10-16T05:38:57;7.68;;;2.00;;
71496;SDS011;59317;53.218;5.730;2022-10-16T05:41:23;7.67;;;2.50;;
71496;SDS011;59317;53.218;5.730;2022-10-16T05:43:51;8.82;;;2.25;;
71496;SDS011;59317;53.218;5.730;2022-10-16T05:46:17;8.80;;;2.70;;
71496;SDS011;59317;53.218;5.730;2022-10-16T05:48:43;6.90;;;2.55;;
71496;SDS011;59317;53.218;5.730;2022-10-16T05:51:10;9.00;;;2.88;;
71496;SDS011;59317;53.218;5.730;2022-10-16T05:53:37;10.25;;;2.90;;
71496;SDS011;59317;53.218;5.730;2022-10-16T05:56:04;8.52;;;3.00;;
71496;SDS011;59317;53.218;5.730;2022-10-16T05:58:34;8.07;;;2.80;;
71496;SDS011;59317;53.218;5.730;2022-10-16T06:01:01;9.88;;;2.95;;
71496;SDS011;59317;53.218;5.730;2022-10-16T06:03:28;8.80;;;2.70;;
71496;SDS011;59317;53.218;5.730;2022-10-16T06:05:54;10.13;;;2.67;;
71496;SDS011;59317;53.218;5.730;2022-10-16T06:08:21;10.40;;;2.40;;
71496;SDS011;59317;53.218;5.730;2022-10-16T06:10:47;8.18;;;2.40;;
71496;SDS011;59317;53.218;5.730;2022-10-16T06:13:14;9.77;;;2.35;;
71496;SDS011;59317;53.218;5.730;2022-10-16T06:15:41;9.90;;;2.23;;
71496;SDS011;59317;53.218;5.730;2022-10-16T06:18:08;7.70;;;2.13;;
71496;SDS011;59317;53.218;5.730;2022-10-16T06:20:34;8.75;;;2.22;;
71496;SDS011;59317;53.218;5.730;2022-10-16T06:23:00;9.73;;;2.40;;
71496;SDS011;59317;53.218;5.730;2022-10-16T06:25:26;8.43;;;2.53;;
71496;SDS011;59317;53.218;5.730;2022-10-16T06:27:52;9.43;;;2.20;;
71496;SDS011;59317;53.218;5.730;2022-10-16T06:30:18;9.13;;;2.50;;
71496;SDS011;59317;53.218;5.730;2022-10-16T06:32:44;10.20;;;2.53;;
71496;SDS011;59317;53.218;5.730;2022-10-16T06:35:10;8.80;;;2.23;;
71496;SDS011;59317;53.218;5.730;2022-10-16T06:37:36;10.32;;;2.10;;
71496;SDS011;59317;53.218;5.730;2022-10-16T06:40:02;9.77;;;1.90;;
71496;SDS011;59317;53.218;5.730;2022-10-16T06:42:29;7.82;;;1.90;;
71496;SDS011;59317;53.218;5.730;2022-10-16T06:44:55;7.95;;;1.95;;
71496;SDS011;59317;53.218;5.730;2022-10-16T06:47:21;7.32;;;1.58;;
71496;SDS011;59317;53.218;5.730;2022-10-16T06:49:47;7.13;;;1.20;;
71496;SDS011;59317;53.218;5.730;2022-10-16T06:52:14;8.00;;;1.50;;
71496;SDS011;59317;53.218;5.730;2022-10-16T06:54:41;8.55;;;1.50;;
71496;SDS011;59317;53.218;5.730;2022-10-16T06:57:07;8.93;;;1.53;;
71496;SDS011;59317;53.218;5.730;2022-10-16T06:59:33;7.35;;;1.50;;
71496;SDS011;59317;53.218;5.730;2022-10-16T07:01:59;8.45;;;1.58;;
71496;SDS011;59317;53.218;5.730;2022-10-16T07:04:25;8.97;;;1.60;;
71496;SDS011;59317;53.218;5.730;2022-10-16T07:06:51;6.97;;;1.53;;
71496;SDS011;59317;53.218;5.730;2022-10-16T07:09:17;6.43;;;1.80;;
71496;SDS011;59317;53.218;5.730;2022-10-16T07:11:43;9.30;;;1.70;;
71496;SDS011;59317;53.218;5.730;2022-10-16T07:14:12;8.93;;;1.80;;
71496;SDS011;59317;53.218;5.730;2022-10-16T07:16:40;7.80;;;2.17;;
71496;SDS011;59317;53.218;5.730;2022-10-16T07:19:07;8.82;;;2.10;;
71496;SDS011;59317;53.218;5.730;2022-10-16T07:21:34;7.78;;;1.83;;
71496;SDS011;59317;53.218;5.730;2022-10-16T07:24:00;6.50;;;1.70;;
71496;SDS011;59317;53.218;5.730;2022-10-16T07:26:27;6.80;;;1.73;;
71496;SDS011;59317;53.218;5.730;2022-10-16T07:28:54;5.60;;;1.30;;
71496;SDS011;59317;53.218;5.730;2022-10-16T07:31:21;7.78;;;1.50;;
71496;SDS011;59317;53.218;5.730;2022-10-16T07:33:48;6.10;;;1.35;;
71496;SDS011;59317;53.218;5.730;2022-10-16T07:36:14;5.88;;;1.45;;
71496;SDS011;59317;53.218;5.730;2022-10-16T07:38:41;7.43;;;1.67;;
71496;SDS011;59317;53.218;5.730;2022-10-16T07:41:08;6.75;;;1.60;;
71496;SDS011;59317;53.218;5.730;2022-10-16T07:43:35;7.38;;;1.58;;
71496;SDS011;59317;53.218;5.730;2022-10-16T07:46:01;7.85;;;1.98;;
71496;SDS011;59317;53.218;5.730;2022-10-16T07:48:29;7.07;;;2.10;;
71496;SDS011;59317;53.218;5.730;2022-10-16T07:50:59;6.88;;;1.80;;
71496;SDS011;59317;53.218;5.730;2022-10-16T07:53:25;11.30;;;2.33;;
71496;SDS011;59317;53.218;5.730;2022-10-16T07:55:52;7.63;;;2.40;;
71496;SDS011;59317;53.218;5.730;2022-10-16T07:58:18;8.60;;;2.53;;
71496;SDS011;59317;53.218;5.730;2022-10-16T08:00:44;8.13;;;2.40;;
71496;SDS011;59317;53.218;5.730;2022-10-16T08:03:10;8.95;;;1.98;;
71496;SDS011;59317;53.218;5.730;2022-10-16T08:05:36;8.80;;;2.15;;
71496;SDS011;59317;53.218;5.730;2022-10-16T08:08:02;7.30;;;1.77;;
71496;SDS011;59317;53.218;5.730;2022-10-16T08:10:28;6.55;;;1.67;;
71496;SDS011;59317;53.218;5.730;2022-10-16T08:12:54;8.80;;;1.80;;
71496;SDS011;59317;53.218;5.730;2022-10-16T08:15:20;10.18;;;2.13;;
71496;SDS011;59317;53.218;5.730;2022-10-16T08:17:57;10.20;;;2.07;;
71496;SDS011;59317;53.218;5.730;2022-10-16T08:20:23;8.80;;;1.63;;
71496;SDS011;59317;53.218;5.730;2022-10-16T08:22:49;10.95;;;1.85;;
71496;SDS011;59317;53.218;5.730;2022-10-16T08:25:15;8.30;;;1.90;;
71496;SDS011;59317;53.218;5.730;2022-10-16T08:27:42;9.43;;;1.80;;
71496;SDS011;59317;53.218;5.730;2022-10-16T08:30:09;8.88;;;1.80;;
71496;SDS011;59317;53.218;5.730;2022-10-16T08:32:35;8.52;;;2.13;;
71496;SDS011;59317;53.218;5.730;2022-10-16T08:35:01;6.15;;;1.85;;
71496;SDS011;59317;53.218;5.730;2022-10-16T08:37:31;8.65;;;1.80;;
71496;SDS011;59317;53.218;5.730;2022-10-16T08:39:58;9.32;;;2.00;;
71496;SDS011;59317;53.218;5.730;2022-10-16T08:50:28;7.32;;;1.70;;
71496;SDS011;59317;53.218;5.730;2022-10-16T08:52:55;9.35;;;1.67;;
71496;SDS011;59317;53.218;5.730;2022-10-16T08:57:47;7.82;;;1.48;;
71496;SDS011;59317;53.218;5.730;2022-10-16T09:00:13;9.48;;;1.50;;
71496;SDS011;59317;53.218;5.730;2022-10-16T09:02:53;9.63;;;1.50;;
71496;SDS011;59317;53.218;5.730;2022-10-16T09:10:33;8.33;;;1.60;;
71496;SDS011;59317;53.218;5.730;2022-10-16T09:13:07;7.18;;;1.55;;
71496;SDS011;59317;53.218;5.730;2022-10-16T09:18:14;13.65;;;2.05;;
71496;SDS011;59317;53.218;5.730;2022-10-16T09:23:14;11.10;;;1.60;;
71496;SDS011;59317;53.218;5.730;2022-10-16T09:25:44;11.27;;;1.85;;
71496;SDS011;59317;53.218;5.730;2022-10-16T09:28:12;14.15;;;1.70;;
71496;SDS011;59317;53.218;5.730;2022-10-16T09:30:38;13.32;;;1.70;;
71496;SDS011;59317;53.218;5.730;2022-10-16T09:33:04;12.02;;;1.48;;
71496;SDS011;59317;53.218;5.730;2022-10-16T09:35:31;9.37;;;1.57;;
71496;SDS011;59317;53.218;5.730;2022-10-16T09:37:59;9.15;;;1.35;;
71496;SDS011;59317;53.218;5.730;2022-10-16T09:40:30;10.98;;;1.70;;
71496;SDS011;59317;53.218;5.730;2022-10-16T09:43:05;13.40;;;1.55;;
71496;SDS011;59317;53.218;5.730;2022-10-16T09:45:33;11.43;;;1.52;;
71496;SDS011;59317;53.218;5.730;2022-10-16T09:48:00;13.23;;;1.60;;
71496;SDS011;59317;53.218;5.730;2022-10-16T09:50:27;14.47;;;1.77;;
71496;SDS011;59317;53.218;5.730;2022-10-16T09:53:12;12.13;;;1.60;;
71496;SDS011;59317;53.218;5.730;2022-10-16T09:55:52;15.90;;;1.85;;
71496;SDS011;59317;53.218;5.730;2022-10-16T09:58:20;14.97;;;1.93;;
71496;SDS011;59317;53.218;5.730;2022-10-16T10:00:51;12.18;;;1.77;;
71496;SDS011;59317;53.218;5.730;2022-10-16T10:06:14;11.15;;;1.65;;
71496;SDS011;59317;53.218;5.730;2022-10-16T10:08:52;12.65;;;1.50;;
71496;SDS011;59317;53.218;5.730;2022-10-16T10:11:18;12.43;;;1.70;;
71496;SDS011;59317;53.218;5.730;2022-10-16T10:13:44;14.05;;;1.55;;
71496;SDS011;59317;53.218;5.730;2022-10-16T10:16:10;13.88;;;1.63;;
71496;SDS011;59317;53.218;5.730;2022-10-16T10:18:35;12.40;;;1.58;;
71496;SDS011;59317;53.218;5.730;2022-10-16T10:21:02;14.65;;;1.75;;
71496;SDS011;59317;53.218;5.730;2022-10-16T10:23:30;14.75;;;1.45;;
71496;SDS011;59317;53.218;5.730;2022-10-16T10:33:44;15.77;;;1.90;;
71496;SDS011;59317;53.218;5.730;2022-10-16T10:38:51;15.13;;;1.75;;
71496;SDS011;59317;53.218;5.730;2022-10-16T10:41:33;14.15;;;1.92;;
71496;SDS011;59317;53.218;5.730;2022-10-16T10:51:56;15.25;;;1.67;;
71496;SDS011;59317;53.218;5.730;2022-10-16T10:54:39;13.77;;;1.50;;
71496;SDS011;59317;53.218;5.730;2022-10-16T10:57:10;12.27;;;1.48;;
71496;SDS011;59317;53.218;5.730;2022-10-16T11:07:40;12.65;;;1.70;;
71496;SDS011;59317;53.218;5.730;2022-10-16T11:10:16;12.77;;;1.30;;
71496;SDS011;59317;53.218;5.730;2022-10-16T11:12:44;10.77;;;1.13;;
71496;SDS011;59317;53.218;5.730;2022-10-16T11:20:31;14.43;;;1.50;;
71496;SDS011;59317;53.218;5.730;2022-10-16T11:22:59;11.98;;;1.38;;
71496;SDS011;59317;53.218;5.730;2022-10-16T11:25:27;14.63;;;1.38;;
71496;SDS011;59317;53.218;5.730;2022-10-16T11:28:06;10.63;;;1.38;;
71496;SDS011;59317;53.218;5.730;2022-10-16T11:30:39;9.27;;;1.30;;
71496;SDS011;59317;53.218;5.730;2022-10-16T11:35:37;9.50;;;1.10;;
71496;SDS011;59317;53.218;5.730;2022-10-16T11:38:05;10.20;;;1.27;;
71496;SDS011;59317;53.218;5.730;2022-10-16T11:40:37;12.40;;;1.38;;
71496;SDS011;59317;53.218;5.730;2022-10-16T11:43:10;15.57;;;1.45;;
71496;SDS011;59317;53.218;5.730;2022-10-16T11:45:41;13.00;;;1.38;;
71496;SDS011;59317;53.218;5.730;2022-10-16T11:53:13;14.20;;;1.73;;
71496;SDS011;59317;53.218;5.730;2022-10-16T11:55:41;12.65;;;1.38;;
71496;SDS011;59317;53.218;5.730;2022-10-16T12:00:41;10.53;;;1.30;;
71496;SDS011;59317;53.218;5.730;2022-10-16T12:03:15;10.65;;;1.13;;
71496;SDS011;59317;53.218;5.730;2022-10-16T12:08:11;10.10;;;1.50;;
71496;SDS011;59317;53.218;5.730;2022-10-16T12:10:38;9.70;;;1.10;;
71496;SDS011;59317;53.218;5.730;2022-10-16T12:13:04;11.38;;;1.08;;
71496;SDS011;59317;53.218;5.730;2022-10-16T12:15:32;11.35;;;1.15;;
71496;SDS011;59317;53.218;5.730;2022-10-16T12:17:59;12.75;;;1.48;;
71496;SDS011;59317;53.218;5.730;2022-10-16T12:20:27;11.55;;;1.20;;
71496;SDS011;59317;53.218;5.730;2022-10-16T12:23:02;11.27;;;1.13;;
71496;SDS011;59317;53.218;5.730;2022-10-16T12:25:30;13.05;;;1.40;;
71496;SDS011;59317;53.218;5.730;2022-10-16T12:28:00;14.20;;;1.02;;
71496;SDS011;59317;53.218;5.730;2022-10-16T12:30:28;12.05;;;1.20;;
71496;SDS011;59317;53.218;5.730;2022-10-16T12:32:58;12.85;;;1.70;;
71496;SDS011;59317;53.218;5.730;2022-10-16T12:35:27;11.40;;;1.23;;
71496;SDS011;59317;53.218;5.730;2022-10-16T12:37:53;11.18;;;0.93;;
71496;SDS011;59317;53.218;5.730;2022-10-16T12:40:24;13.67;;;1.57;;
71496;SDS011;59317;53.218;5.730;2022-10-16T12:42:51;12.10;;;1.23;;
71496;SDS011;59317;53.218;5.730;2022-10-16T12:45:30;14.10;;;1.60;;
71496;SDS011;59317;53.218;5.730;2022-10-16T12:47:57;10.10;;;1.00;;
71496;SDS011;59317;53.218;5.730;2022-10-16T12:50:25;9.90;;;1.02;;
71496;SDS011;59317;53.218;5.730;2022-10-16T12:52:51;9.43;;;1.30;;
71496;SDS011;59317;53.218;5.730;2022-10-16T12:55:18;10.20;;;1.00;;
71496;SDS011;59317;53.218;5.730;2022-10-16T12:57:52;11.55;;;1.38;;
71496;SDS011;59317;53.218;5.730;2022-10-16T13:03:22;10.15;;;1.60;;
71496;SDS011;59317;53.218;5.730;2022-10-16T13:16:29;12.70;;;1.70;;
71496;SDS011;59317;53.218;5.730;2022-10-16T13:27:28;14.88;;;1.45;;
71496;SDS011;59317;53.218;5.730;2022-10-16T13:30:10;10.88;;;1.00;;
71496;SDS011;59317;53.218;5.730;2022-10-16T13:32:38;11.38;;;1.30;;
71496;SDS011;59317;53.218;5.730;2022-10-16T13:35:15;10.68;;;1.25;;
71496;SDS011;59317;53.218;5.730;2022-10-16T13:37:43;13.93;;;1.20;;
71496;SDS011;59317;53.218;5.730;2022-10-16T13:40:22;13.32;;;1.70;;
71496;SDS011;59317;53.218;5.730;2022-10-16T13:42:49;11.57;;;1.30;;
71496;SDS011;59317;53.218;5.730;2022-10-16T13:45:33;12.15;;;1.52;;
71496;SDS011;59317;53.218;5.730;2022-10-16T13:48:06;12.77;;;1.50;;
71496;SDS011;59317;53.218;5.730;2022-10-16T13:50:37;11.65;;;1.27;;
71496;SDS011;59317;53.218;5.730;2022-10-16T13:53:03;12.52;;;1.40;;
71496;SDS011;59317;53.218;5.730;2022-10-16T13:55:29;13.88;;;1.25;;
71496;SDS011;59317;53.218;5.730;2022-10-16T13:58:12;12.35;;;1.30;;
71496;SDS011;59317;53.218;5.730;2022-10-16T14:00:38;12.32;;;1.38;;
71496;SDS011;59317;53.218;5.730;2022-10-16T14:03:05;10.95;;;1.20;;
71496;SDS011;59317;53.218;5.730;2022-10-16T14:05:32;13.10;;;1.50;;
71496;SDS011;59317;53.218;5.730;2022-10-16T14:07:58;11.77;;;1.60;;
71496;SDS011;59317;53.218;5.730;2022-10-16T14:12:57;11.10;;;1.23;;
71496;SDS011;59317;53.218;5.730;2022-10-16T14:15:24;10.93;;;1.40;;
71496;SDS011;59317;53.218;5.730;2022-10-16T14:17:50;8.87;;;1.17;;
71496;SDS011;59317;53.218;5.730;2022-10-16T14:20:17;10.63;;;1.10;;
71496;SDS011;59317;53.218;5.730;2022-10-16T14:22:44;8.35;;;1.02;;
71496;SDS011;59317;53.218;5.730;2022-10-16T14:27:58;11.98;;;1.27;;
71496;SDS011;59317;53.218;5.730;2022-10-16T14:30:25;10.98;;;1.15;;
71496;SDS011;59317;53.218;5.730;2022-10-16T14:32:55;10.45;;;1.23;;
71496;SDS011;59317;53.218;5.730;2022-10-16T14:35:22;12.00;;;1.40;;
71496;SDS011;59317;53.218;5.730;2022-10-16T14:37:51;10.93;;;1.30;;
71496;SDS011;59317;53.218;5.730;2022-10-16T14:40:17;10.30;;;1.40;;
71496;SDS011;59317;53.218;5.730;2022-10-16T14:42:43;11.88;;;1.33;;
71496;SDS011;59317;53.218;5.730;2022-10-16T14:45:10;11.30;;;1.20;;
71496;SDS011;59317;53.218;5.730;2022-10-16T14:47:36;10.70;;;1.00;;
71496;SDS011;59317;53.218;5.730;2022-10-16T14:50:12;11.27;;;1.20;;
71496;SDS011;59317;53.218;5.730;2022-10-16T14:52:38;12.03;;;1.33;;
71496;SDS011;59317;53.218;5.730;2022-10-16T14:55:04;11.10;;;1.17;;
71496;SDS011;59317;53.218;5.730;2022-10-16T14:57:31;9.75;;;1.23;;
71496;SDS011;59317;53.218;5.730;2022-10-16T14:59:59;10.45;;;1.02;;
71496;SDS011;59317;53.218;5.730;2022-10-16T15:02:27;15.85;;;1.50;;
71496;SDS011;59317;53.218;5.730;2022-10-16T15:04:54;14.13;;;1.63;;
71496;SDS011;59317;53.218;5.730;2022-10-16T15:07:20;13.75;;;1.65;;
71496;SDS011;59317;53.218;5.730;2022-10-16T15:09:46;10.02;;;1.10;;
71496;SDS011;59317;53.218;5.730;2022-10-16T15:12:12;13.10;;;1.30;;
71496;SDS011;59317;53.218;5.730;2022-10-16T15:14:38;12.17;;;1.47;;
71496;SDS011;59317;53.218;5.730;2022-10-16T15:17:04;10.90;;;1.20;;
71496;SDS011;59317;53.218;5.730;2022-10-16T15:19:30;12.07;;;1.47;;
71496;SDS011;59317;53.218;5.730;2022-10-16T15:21:56;12.17;;;1.30;;
71496;SDS011;59317;53.218;5.730;2022-10-16T15:24:22;11.73;;;1.40;;
71496;SDS011;59317;53.218;5.730;2022-10-16T15:26:48;12.57;;;1.30;;
71496;SDS011;59317;53.218;5.730;2022-10-16T15:29:15;11.68;;;1.27;;
71496;SDS011;59317;53.218;5.730;2022-10-16T15:31:41;12.93;;;1.52;;
71496;SDS011;59317;53.218;5.730;2022-10-16T15:34:12;13.23;;;1.33;;
71496;SDS011;59317;53.218;5.730;2022-10-16T15:36:38;13.07;;;1.70;;
71496;SDS011;59317;53.218;5.730;2022-10-16T15:39:14;13.27;;;1.40;;
71496;SDS011;59317;53.218;5.730;2022-10-16T15:41:40;12.82;;;1.40;;
71496;SDS011;59317;53.218;5.730;2022-10-16T15:44:06;11.45;;;1.42;;
71496;SDS011;59317;53.218;5.730;2022-10-16T15:46:32;11.73;;;1.55;;
71496;SDS011;59317;53.218;5.730;2022-10-16T15:48:59;11.50;;;1.30;;
71496;SDS011;59317;53.218;5.730;2022-10-16T15:51:26;12.85;;;1.40;;
71496;SDS011;59317;53.218;5.730;2022-10-16T15:53:55;11.98;;;1.27;;
71496;SDS011;59317;53.218;5.730;2022-10-16T15:56:22;12.27;;;1.33;;
71496;SDS011;59317;53.218;5.730;2022-10-16T15:58:50;12.52;;;1.27;;
71496;SDS011;59317;53.218;5.730;2022-10-16T16:01:16;11.90;;;1.40;;
71496;SDS011;59317;53.218;5.730;2022-10-16T16:03:42;12.93;;;1.30;;
71496;SDS011;59317;53.218;5.730;2022-10-16T16:06:09;11.55;;;1.30;;
71496;SDS011;59317;53.218;5.730;2022-10-16T16:08:36;12.15;;;1.20;;
71496;SDS011;59317;53.218;5.730;2022-10-16T16:11:04;12.70;;;1.63;;
71496;SDS011;59317;53.218;5.730;2022-10-16T16:13:30;13.20;;;1.20;;
71496;SDS011;59317;53.218;5.730;2022-10-16T16:15:56;10.35;;;1.20;;
71496;SDS011;59317;53.218;5.730;2022-10-16T16:18:22;13.60;;;1.45;;
71496;SDS011;59317;53.218;5.730;2022-10-16T16:20:49;13.60;;;1.40;;
71496;SDS011;59317;53.218;5.730;2022-10-16T16:23:15;11.73;;;1.30;;
71496;SDS011;59317;53.218;5.730;2022-10-16T16:25:41;12.18;;;1.33;;
71496;SDS011;59317;53.218;5.730;2022-10-16T16:28:10;12.88;;;1.17;;
71496;SDS011;59317;53.218;5.730;2022-10-16T16:30:39;16.67;;;1.67;;
71496;SDS011;59317;53.218;5.730;2022-10-16T16:33:05;13.95;;;1.30;;
71496;SDS011;59317;53.218;5.730;2022-10-16T16:35:31;13.13;;;1.50;;
71496;SDS011;59317;53.218;5.730;2022-10-16T16:37:57;11.57;;;2.03;;